createdAt,value
2022-12-12T00:00:41.252Z,16.55
2022-12-12T00:03:08.886Z,15.88
2022-12-12T00:05:36.469Z,16.27
2022-12-12T00:10:31.421Z,16.35
2022-12-12T00:12:59.694Z,16.80
2022-12-12T00:17:56.403Z,15.80
2022-12-12T00:20:23.842Z,18.52
2022-12-12T00:25:19.009Z,16.55
2022-12-12T00:27:46.836Z,20.67
2022-12-12T00:30:14.247Z,18.40
2022-12-12T00:40:04.344Z,19.38
2022-12-12T00:42:31.854Z,20.63
2022-12-12T00:52:21.119Z,19.75
2022-12-12T00:57:15.961Z,20.15
2022-12-12T00:59:43.423Z,18.85
2022-12-12T01:09:32.518Z,15.38
2022-12-12T01:11:59.975Z,17.73
2022-12-12T01:14:27.586Z,16.63
2022-12-12T01:16:56.067Z,15.05
2022-12-12T01:24:18.359Z,16.60
2022-12-12T01:26:46.097Z,16.60
2022-12-12T01:29:13.656Z,16.80
2022-12-12T01:31:41.316Z,14.93
2022-12-12T01:34:08.835Z,16.48
2022-12-12T01:36:36.961Z,16.23
2022-12-12T01:39:05.896Z,17.10
2022-12-12T01:41:33.351Z,17.38
2022-12-12T01:46:43.128Z,15.82
2022-12-12T01:49:16.785Z,17.58
2022-12-12T01:51:45.527Z,16.33
2022-12-12T01:54:22.823Z,17.60
2022-12-12T01:59:22.736Z,14.50
2022-12-12T02:01:51.260Z,11.88
2022-12-12T02:04:19.397Z,14.82
2022-12-12T02:06:49.473Z,14.82
2022-12-12T02:09:18.138Z,13.23
2022-12-12T02:11:48.709Z,15.80
2022-12-12T02:14:20.903Z,16.42
2022-12-12T02:17:10.151Z,16.48
2022-12-12T02:20:06.200Z,14.95
2022-12-12T02:23:00.087Z,14.45
2022-12-12T02:25:51.848Z,16.27
2022-12-12T02:28:34.438Z,12.10
2022-12-12T02:31:23.718Z,16.95
2022-12-12T02:34:01.066Z,15.68
2022-12-12T02:39:31.564Z,16.58
2022-12-12T02:42:02.089Z,14.48
2022-12-12T02:44:39.078Z,15.88
2022-12-12T02:47:41.357Z,13.82
2022-12-12T02:50:20.455Z,16.85
2022-12-12T02:52:48.747Z,15.98
2022-12-12T02:55:17.282Z,17.67
2022-12-12T02:57:45.012Z,16.33
2022-12-12T03:00:15.823Z,16.50
2022-12-12T03:03:20.064Z,16.90
2022-12-12T03:06:41.304Z,17.15
2022-12-12T03:09:20.824Z,12.93
2022-12-12T03:12:11.970Z,13.95
2022-12-12T03:14:45.566Z,15.07
2022-12-12T03:17:25.086Z,13.43
2022-12-12T03:20:18.116Z,12.98
2022-12-12T03:23:23.806Z,15.52
2022-12-12T03:26:00.787Z,13.07
2022-12-12T03:28:40.510Z,14.00
2022-12-12T03:31:12.077Z,13.57
2022-12-12T03:33:53.304Z,14.25
2022-12-12T03:36:26.915Z,14.23
2022-12-12T03:38:59.824Z,16.92
2022-12-12T03:41:42.129Z,16.60
2022-12-12T03:44:22.492Z,19.13
2022-12-12T03:46:57.493Z,17.27
2022-12-12T03:49:31.927Z,18.55
2022-12-12T03:52:07.047Z,15.75
2022-12-12T03:54:40.882Z,17.02
2022-12-12T03:57:24.250Z,16.52
2022-12-12T04:00:06.769Z,17.90
2022-12-12T04:02:51.971Z,15.70
2022-12-12T04:05:28.638Z,17.25
2022-12-12T04:08:13.202Z,16.10
2022-12-12T04:11:12.342Z,15.02
2022-12-12T04:13:48.994Z,17.42
2022-12-12T04:16:23.607Z,17.05
2022-12-12T04:19:01.898Z,16.33
2022-12-12T04:22:00.202Z,15.32
2022-12-12T04:24:29.262Z,18.60
2022-12-12T04:27:31.068Z,13.65
2022-12-12T04:30:07.339Z,17.83
2022-12-12T04:32:34.934Z,16.98
2022-12-12T04:35:13.100Z,19.13
2022-12-12T04:37:48.185Z,16.15
2022-12-12T04:40:23.290Z,14.80
2022-12-12T04:43:02.907Z,13.63
2022-12-12T04:45:38.518Z,14.60
2022-12-12T04:48:09.526Z,15.45
2022-12-12T04:50:38.665Z,13.82
2022-12-12T04:53:18.159Z,17.40
2022-12-12T04:55:56.116Z,16.40
2022-12-12T04:58:24.234Z,15.50
2022-12-12T05:01:28.758Z,17.02
2022-12-12T05:04:06.414Z,15.95
2022-12-12T05:06:42.481Z,15.50
2022-12-12T05:09:11.876Z,12.65
2022-12-12T05:11:39.621Z,15.20
2022-12-12T05:14:09.599Z,16.75
2022-12-12T05:16:52.047Z,16.60
2022-12-12T05:19:19.545Z,15.18
2022-12-12T05:21:46.987Z,19.25
2022-12-12T05:26:41.926Z,13.18
2022-12-12T05:29:09.488Z,15.48
2022-12-12T05:34:04.837Z,14.30
2022-12-12T05:36:32.542Z,14.40
2022-12-12T05:39:00.024Z,17.42
2022-12-12T05:41:27.644Z,18.02
2022-12-12T05:46:22.644Z,16.35
2022-12-12T05:48:50.906Z,16.13
2022-12-12T05:51:19.340Z,14.40
2022-12-12T05:53:47.530Z,17.02
2022-12-12T05:56:15.007Z,15.38
2022-12-12T06:01:10.846Z,17.23
2022-12-12T06:03:38.342Z,15.32
2022-12-12T06:08:33.274Z,19.05
2022-12-12T06:11:00.773Z,17.20
2022-12-12T06:15:55.683Z,17.60
2022-12-12T06:18:23.262Z,21.95
2022-12-12T06:28:12.502Z,19.05
2022-12-12T06:30:39.932Z,20.65
2022-12-12T06:35:34.828Z,19.20
2022-12-12T06:38:02.324Z,16.88
2022-12-12T06:42:57.571Z,20.05
2022-12-12T06:47:52.452Z,19.63
2022-12-12T06:50:23.668Z,20.40
2022-12-12T06:52:51.631Z,20.83
2022-12-12T06:55:19.056Z,20.52
2022-12-12T06:57:46.613Z,20.17
2022-12-12T07:02:41.615Z,20.15
2022-12-12T07:07:36.518Z,20.20
2022-12-12T07:12:31.837Z,21.45
2022-12-12T07:24:52.629Z,21.67
2022-12-12T07:27:21.976Z,21.45
2022-12-12T07:29:49.545Z,21.90
2022-12-12T07:44:33.376Z,24.27
2022-12-12T07:49:29.645Z,22.33
2022-12-12T07:51:57.135Z,27.05
2022-12-12T07:54:24.759Z,29.05
2022-12-12T07:56:52.215Z,26.52
2022-12-12T07:59:19.687Z,23.38
2022-12-12T08:04:14.606Z,26.88
2022-12-12T08:06:42.171Z,24.95
2022-12-12T08:11:38.899Z,32.97
2022-12-12T08:14:13.131Z,41.90
2022-12-12T08:16:41.386Z,42.13
2022-12-12T08:19:08.885Z,43.22
2022-12-12T08:21:36.533Z,38.50
2022-12-12T08:24:04.205Z,37.55
2022-12-12T08:26:32.358Z,40.80
2022-12-12T08:29:00.092Z,25.35
2022-12-12T08:31:28.267Z,21.48
2022-12-12T08:33:56.211Z,18.00
2022-12-12T08:36:32.231Z,17.00
2022-12-12T08:39:05.167Z,18.75
2022-12-12T08:41:34.660Z,17.95
2022-12-12T08:44:02.133Z,19.98
2022-12-12T08:46:29.908Z,19.75
2022-12-12T08:48:57.359Z,20.75
2022-12-12T08:53:53.474Z,18.42
2022-12-12T08:56:23.261Z,17.20
2022-12-12T08:58:51.074Z,18.33
2022-12-12T09:01:22.275Z,18.42
2022-12-12T09:03:51.564Z,19.15
2022-12-12T09:06:19.762Z,17.42
2022-12-12T09:08:48.160Z,18.30
2022-12-12T09:11:17.840Z,20.27
2022-12-12T09:13:45.562Z,18.63
2022-12-12T09:16:13.283Z,20.55
2022-12-12T09:18:48.105Z,15.55
2022-12-12T09:21:17.001Z,19.08
2022-12-12T09:23:44.683Z,17.23
2022-12-12T09:26:12.528Z,20.40
2022-12-12T09:28:40.424Z,16.55
2022-12-12T09:31:09.700Z,18.90
2022-12-12T09:33:37.464Z,17.90
2022-12-12T09:36:07.193Z,19.35
2022-12-12T09:38:35.195Z,16.77
2022-12-12T09:41:09.811Z,15.43
2022-12-12T09:44:00.307Z,17.27
2022-12-12T09:46:37.714Z,17.73
2022-12-12T09:49:24.789Z,17.48
2022-12-12T09:51:54.185Z,19.08
2022-12-12T09:54:25.650Z,22.67
2022-12-12T09:56:59.202Z,30.77
2022-12-12T09:59:36.175Z,33.78
2022-12-12T10:02:34.900Z,31.70
2022-12-12T10:05:42.787Z,21.58
2022-12-12T10:08:10.316Z,24.85
2022-12-12T10:13:19.479Z,25.45
2022-12-12T10:15:51.771Z,24.90
2022-12-12T10:18:27.090Z,23.75
2022-12-12T10:20:59.451Z,20.55
2022-12-12T10:23:51.477Z,20.48
2022-12-12T10:26:24.230Z,18.20
2022-12-12T10:28:56.069Z,19.58
2022-12-12T10:31:30.260Z,16.70
2022-12-12T10:34:13.077Z,19.25
2022-12-12T10:37:08.915Z,19.27
2022-12-12T10:39:42.331Z,20.17
2022-12-12T10:42:24.616Z,21.20
2022-12-12T10:45:23.481Z,19.98
2022-12-12T10:47:51.244Z,24.35
2022-12-12T10:50:39.024Z,21.98
2022-12-12T10:53:09.008Z,26.52
2022-12-12T10:55:57.866Z,26.08
2022-12-12T10:58:37.774Z,24.55
2022-12-12T11:01:44.981Z,25.67
2022-12-12T11:04:14.604Z,25.55
2022-12-12T11:06:56.238Z,27.75
2022-12-12T11:09:26.772Z,27.95
2022-12-12T11:12:16.648Z,24.58
2022-12-12T11:14:51.434Z,26.17
2022-12-12T11:17:28.593Z,31.33
2022-12-12T11:19:58.844Z,34.33
2022-12-12T11:22:27.974Z,31.70
2022-12-12T11:24:56.146Z,32.70
2022-12-12T11:27:32.234Z,32.28
2022-12-12T11:30:04.286Z,30.08
2022-12-12T11:32:44.637Z,29.63
2022-12-12T11:35:46.996Z,30.70
2022-12-12T11:38:25.007Z,31.35
2022-12-12T11:41:02.068Z,32.60
2022-12-12T11:43:37.089Z,34.05
2022-12-12T11:46:13.684Z,34.35
2022-12-12T11:48:59.293Z,36.88
2022-12-12T11:51:39.426Z,34.47
2022-12-12T11:54:45.402Z,35.88
2022-12-12T11:57:24.305Z,35.67
2022-12-12T12:00:13.285Z,37.40
2022-12-12T12:03:05.467Z,37.58
2022-12-12T12:05:46.153Z,34.22
2022-12-12T12:08:35.703Z,35.28
2022-12-12T12:11:09.636Z,36.97
2022-12-12T12:13:55.361Z,37.55
2022-12-12T12:16:59.599Z,38.70
2022-12-12T12:19:30.058Z,37.95
2022-12-12T12:22:39.218Z,38.63
2022-12-12T12:25:19.634Z,38.22
2022-12-12T12:28:06.027Z,41.97
2022-12-12T12:30:59.585Z,41.38
2022-12-12T12:34:12.296Z,41.92
2022-12-12T12:36:54.630Z,37.28
2022-12-12T12:39:52.214Z,37.72
2022-12-12T12:42:49.797Z,38.85
2022-12-12T12:45:27.800Z,41.78
2022-12-12T12:48:10.227Z,40.30
2022-12-12T12:50:47.240Z,36.75
2022-12-12T12:53:23.391Z,39.17
2022-12-12T12:55:58.622Z,43.22
2022-12-12T12:58:31.022Z,41.58
2022-12-12T13:01:39.068Z,40.03
2022-12-12T13:04:21.339Z,39.55
2022-12-12T13:07:04.452Z,39.58
2022-12-12T13:09:51.372Z,38.75
2022-12-12T13:12:32.573Z,41.47
2022-12-12T13:15:04.878Z,42.35
2022-12-12T13:17:35.986Z,43.10
2022-12-12T13:20:03.798Z,36.42
2022-12-12T13:22:45.805Z,39.13
2022-12-12T13:26:02.766Z,37.75
2022-12-12T13:29:04.374Z,34.65
2022-12-12T13:31:40.838Z,37.30
2022-12-12T13:34:16.749Z,36.92
2022-12-12T13:36:48.553Z,38.10
2022-12-12T13:39:31.099Z,39.15
2022-12-12T13:42:03.671Z,36.53
2022-12-12T13:44:44.490Z,37.28
2022-12-12T13:47:18.021Z,38.92
2022-12-12T13:49:53.846Z,34.25
2022-12-12T13:52:44.777Z,33.58
2022-12-12T13:55:12.851Z,34.08
2022-12-12T13:58:02.766Z,36.17
2022-12-12T14:00:37.976Z,35.70
2022-12-12T14:03:12.608Z,37.78
2022-12-12T14:05:43.453Z,31.73
2022-12-12T14:08:11.001Z,35.70
2022-12-12T14:11:03.088Z,34.22
2022-12-12T14:13:45.336Z,32.67
2022-12-12T14:16:30.057Z,33.00
2022-12-12T14:19:21.015Z,30.65
2022-12-12T14:21:48.968Z,34.53
2022-12-12T14:24:34.938Z,35.20
2022-12-12T14:27:04.461Z,30.42
2022-12-12T14:29:45.727Z,30.95
2022-12-12T14:32:13.341Z,30.42
2022-12-12T14:37:36.100Z,29.52
2022-12-12T14:40:28.298Z,29.67
2022-12-12T14:43:21.842Z,30.77
2022-12-12T14:45:50.240Z,29.13
2022-12-12T14:48:33.736Z,29.85
2022-12-12T14:51:11.949Z,26.80
2022-12-12T14:53:39.518Z,27.35
2022-12-12T14:58:46.211Z,30.90
2022-12-12T15:01:18.151Z,29.17
2022-12-12T15:03:50.428Z,30.75
2022-12-12T15:06:25.839Z,29.13
2022-12-12T15:08:54.418Z,29.48
2022-12-12T15:11:25.448Z,25.00
2022-12-12T15:13:58.573Z,26.95
2022-12-12T15:16:48.562Z,23.80
2022-12-12T15:19:23.188Z,29.17
2022-12-12T15:21:51.073Z,25.52
2022-12-12T15:24:26.599Z,25.60
2022-12-12T15:26:59.065Z,25.05
2022-12-12T15:29:29.406Z,25.60
2022-12-12T15:32:07.125Z,27.13
2022-12-12T15:34:36.982Z,21.95
2022-12-12T15:37:34.528Z,23.30
2022-12-12T15:40:13.895Z,28.27
2022-12-12T15:42:49.378Z,25.05
2022-12-12T15:45:26.072Z,25.00
2022-12-12T15:50:27.280Z,26.63
2022-12-12T15:53:08.232Z,26.45
2022-12-12T15:55:36.346Z,21.08
2022-12-12T15:58:03.904Z,20.73
2022-12-12T16:00:38.129Z,24.52
2022-12-12T16:03:11.627Z,24.80
2022-12-12T16:05:40.156Z,22.08
2022-12-12T16:08:31.749Z,26.95
2022-12-12T16:11:02.611Z,25.27
2022-12-12T16:13:41.323Z,24.17
2022-12-12T16:16:35.789Z,24.90
2022-12-12T16:19:05.246Z,22.17
2022-12-12T16:21:34.554Z,24.50
2022-12-12T16:24:13.376Z,25.55
2022-12-12T16:26:41.110Z,24.20
2022-12-12T16:29:08.576Z,30.75
2022-12-12T16:36:31.172Z,27.13
2022-12-12T16:38:58.566Z,24.30
2022-12-12T16:43:53.192Z,26.77
2022-12-12T16:46:23.196Z,25.65
2022-12-12T16:48:52.879Z,24.40
2022-12-12T16:51:27.704Z,26.92
2022-12-12T16:53:55.617Z,26.58
2022-12-12T16:56:23.019Z,23.88
2022-12-12T17:01:19.198Z,28.00
2022-12-12T17:03:47.094Z,28.15
2022-12-12T17:06:14.558Z,25.27
2022-12-12T17:13:46.438Z,31.48
2022-12-12T17:16:14.727Z,23.98
2022-12-12T17:18:42.202Z,25.98
2022-12-12T17:23:37.130Z,27.45
2022-12-12T17:26:05.199Z,29.58
2022-12-12T17:28:34.145Z,23.92
2022-12-12T17:31:02.483Z,25.40
2022-12-12T17:33:30.414Z,30.65
2022-12-12T17:36:04.591Z,27.42
2022-12-12T17:38:33.143Z,25.98
2022-12-12T17:41:09.172Z,27.58
2022-12-12T17:43:37.658Z,27.90
2022-12-12T17:46:08.646Z,28.10
2022-12-12T17:48:36.333Z,28.95
2022-12-12T17:51:06.161Z,29.10
2022-12-12T17:53:42.324Z,26.98
2022-12-12T17:56:15.851Z,27.73
2022-12-12T17:58:45.978Z,29.55
2022-12-12T18:01:16.437Z,32.40
2022-12-12T18:03:44.726Z,29.10
2022-12-12T18:06:13.130Z,31.88
2022-12-12T18:08:42.147Z,33.53
2022-12-12T18:11:13.732Z,30.25
2022-12-12T18:13:42.054Z,30.25
2022-12-12T18:16:13.381Z,30.90
2022-12-12T18:18:41.253Z,29.95
2022-12-12T18:21:59.277Z,32.55
2022-12-12T18:24:18.845Z,29.63
2022-12-12T18:26:47.830Z,28.67
2022-12-12T18:29:15.364Z,31.13
2022-12-12T18:34:10.635Z,35.42
2022-12-12T18:36:38.101Z,31.10
2022-12-12T18:39:07.143Z,31.00
2022-12-12T18:41:36.898Z,29.25
2022-12-12T18:44:07.268Z,30.60
2022-12-12T18:46:41.953Z,33.05
2022-12-12T18:49:15.130Z,32.95
2022-12-12T18:51:44.505Z,32.22
2022-12-12T18:54:28.964Z,28.48
2022-12-12T18:57:00.378Z,31.35
2022-12-12T18:59:27.869Z,30.05
2022-12-12T19:01:55.440Z,28.08
2022-12-12T19:04:23.958Z,30.67
2022-12-12T19:06:53.095Z,26.60
2022-12-12T19:09:21.709Z,30.33
2022-12-12T19:11:50.346Z,29.27
2022-12-12T19:14:18.005Z,28.83
2022-12-12T19:16:46.057Z,28.40
2022-12-12T19:19:14.528Z,27.73
2022-12-12T19:21:42.950Z,24.25
2022-12-12T19:24:12.566Z,25.40
2022-12-12T19:26:42.335Z,29.23
2022-12-12T19:29:17.634Z,28.25
2022-12-12T19:31:45.583Z,27.65
2022-12-12T19:34:16.215Z,28.48
2022-12-12T19:36:44.193Z,24.67
2022-12-12T19:39:12.857Z,28.92
2022-12-12T19:41:40.666Z,28.58
2022-12-12T19:44:12.798Z,28.60
2022-12-12T19:46:42.923Z,28.88
2022-12-12T19:49:13.844Z,27.98
2022-12-12T19:51:42.892Z,29.10
2022-12-12T19:54:15.140Z,28.23
2022-12-12T19:56:51.429Z,31.85
2022-12-12T19:59:25.103Z,29.50
2022-12-12T20:01:52.638Z,27.67
2022-12-12T20:06:51.604Z,27.70
2022-12-12T20:09:22.352Z,28.63
2022-12-12T20:11:50.385Z,29.08
2022-12-12T20:14:23.487Z,29.02
2022-12-12T20:16:55.107Z,29.77
2022-12-12T20:19:24.425Z,25.65
2022-12-12T20:22:02.259Z,26.00
2022-12-12T20:24:32.434Z,32.75
2022-12-12T20:27:00.270Z,32.17
2022-12-12T20:29:28.055Z,28.85
2022-12-12T20:31:55.738Z,30.42
2022-12-12T20:34:25.020Z,26.60
2022-12-12T20:36:55.167Z,26.13
2022-12-12T20:39:24.947Z,27.63
2022-12-12T20:41:53.951Z,26.95
2022-12-12T20:44:23.394Z,27.40
2022-12-12T20:46:51.326Z,28.45
2022-12-12T20:49:22.420Z,29.88
2022-12-12T20:51:58.641Z,30.85
2022-12-12T20:54:28.470Z,32.83
2022-12-12T20:56:57.504Z,25.52
2022-12-12T20:59:25.865Z,30.80
2022-12-12T21:01:53.810Z,26.30
2022-12-12T21:04:22.132Z,28.90
2022-12-12T21:06:51.778Z,30.08
2022-12-12T21:09:25.080Z,29.70
2022-12-12T21:11:55.953Z,29.38
2022-12-12T21:14:25.246Z,29.60
2022-12-12T21:16:53.499Z,27.42
2022-12-12T21:19:22.092Z,30.80
2022-12-12T21:21:50.473Z,27.83
2022-12-12T21:24:18.517Z,25.27
2022-12-12T21:26:46.732Z,25.80
2022-12-12T21:29:14.355Z,25.80
2022-12-12T21:31:49.809Z,26.13
2022-12-12T21:34:18.482Z,24.17
2022-12-12T21:36:45.907Z,26.05
2022-12-12T21:41:44.012Z,25.60
2022-12-12T21:44:11.872Z,26.88
2022-12-12T21:46:42.148Z,24.65
2022-12-12T21:49:28.431Z,24.38
2022-12-12T21:51:59.412Z,24.53
2022-12-12T21:54:29.236Z,27.35
2022-12-12T21:56:57.860Z,26.02
2022-12-12T21:59:27.046Z,26.25
2022-12-12T22:01:59.975Z,24.85
2022-12-12T22:04:28.201Z,24.75
2022-12-12T22:06:57.347Z,25.17
2022-12-12T22:09:25.201Z,28.55
2022-12-12T22:12:04.078Z,26.02
2022-12-12T22:14:33.366Z,26.02
2022-12-12T22:17:03.400Z,24.50
2022-12-12T22:19:31.327Z,26.85
2022-12-12T22:21:58.799Z,26.17
2022-12-12T22:26:54.010Z,23.77
2022-12-12T22:29:21.632Z,27.92
2022-12-12T22:34:23.700Z,27.73
2022-12-12T22:36:52.219Z,24.02
2022-12-12T22:39:27.690Z,26.88
2022-12-12T22:41:55.903Z,29.73
2022-12-12T22:44:25.197Z,28.08
2022-12-12T22:46:54.737Z,28.67
2022-12-12T22:49:25.875Z,26.00
2022-12-12T22:51:57.143Z,27.52
2022-12-12T22:54:25.907Z,26.48
2022-12-12T22:56:53.482Z,26.90
2022-12-12T22:59:21.290Z,29.75
2022-12-12T23:01:48.740Z,25.48
2022-12-12T23:06:44.249Z,28.10
2022-12-12T23:09:17.167Z,23.20
2022-12-12T23:11:45.462Z,29.55
2022-12-12T23:14:16.259Z,23.95
2022-12-12T23:16:44.874Z,28.55
2022-12-12T23:19:14.828Z,28.52
2022-12-12T23:21:42.457Z,26.75
2022-12-12T23:24:10.384Z,29.60
2022-12-12T23:26:38.553Z,25.77
2022-12-12T23:29:09.208Z,25.27
2022-12-12T23:31:38.701Z,28.13
2022-12-12T23:34:15.951Z,26.98
2022-12-12T23:36:44.133Z,30.25
2022-12-12T23:39:12.934Z,24.73
2022-12-12T23:41:41.130Z,26.67
2022-12-12T23:44:10.063Z,25.65
2022-12-12T23:46:37.749Z,28.13
2022-12-12T23:49:12.724Z,28.92
2022-12-12T23:51:51.932Z,35.78
2022-12-12T23:54:28.119Z,26.50
2022-12-12T23:56:56.218Z,28.40
2022-12-12T23:59:25.727Z,29.85
